Zambezi Star — 2CKK9 — position and weather

sailwx.info

Track history (hours):
 
Tides and Currents Weather Stations Pressure Air Temp Water Temp Dewpoint Dewpoint Depression Visibility Wind Speed Wind Dir Waves Ship Positions

Zambezi Star

Last reported at 2017-Oct-19 20:00 UTC. Time now 2017-Oct-19 20:06 UTC.
Position N 46°57' E 032°00'.

Length 184 m; draft 8.6 m.

Type: Ship. MMSI: 235073548.

Date/timePositionNaut miles runAvg speedWind from/ knotsBaromVisibWave heightAir tempDewpointWater temp
2017-Oct-19 20:00N 46°57' E 032°00'0 0.8
2017-Oct-19 19:30N 46°56' E 032°01'0 0.3
2017-Oct-19 19:00N 46°56' E 032°01'0 0.0
2017-Oct-19 18:29N 46°56' E 032°01'0 0.0
2017-Oct-19 17:59N 46°56' E 032°01'0 0.0
2017-Oct-19 17:29N 46°56' E 032°01'0 0.0
2017-Oct-19 16:59N 46°56' E 032°01'0 0.0
2017-Oct-18 09:22N 46°56' E 032°01'0 0.4
2017-Oct-18 09:00N 46°56' E 032°01'0 0.2
2017-Oct-18 08:29N 46°56' E 032°01'0 0.0
2017-Oct-18 07:56N 46°56' E 032°01'0 0.1
2017-Oct-18 07:29N 46°56' E 032°01'0 0.1
2017-Oct-18 06:59N 46°56' E 032°01'0 0.1
2017-Oct-18 06:29N 46°56' E 032°01'0 0.1
2017-Oct-18 05:59N 46°56' E 032°01'0 0.0
2017-Oct-18 05:29N 46°56' E 032°01'0 0.0
2017-Oct-18 04:59N 46°56' E 032°01'0 0.0
2017-Oct-18 04:29N 46°56' E 032°01'0 0.0
2017-Oct-18 03:59N 46°56' E 032°01'0 0.1
2017-Oct-18 03:29N 46°56' E 032°01'0 0.0
2017-Oct-18 02:59N 46°56' E 032°01'0 0.0
2017-Oct-18 02:29N 46°56' E 032°01'0 0.0
2017-Oct-18 01:59N 46°56' E 032°01'0 0.0
2017-Oct-18 01:29N 46°56' E 032°01'0 0.0
2017-Oct-18 00:59N 46°56' E 032°01'0 0.1
2017-Oct-18 00:29N 46°56' E 032°01'0 0.0
2017-Oct-17 23:59N 46°56' E 032°01'0 0.1
2017-Oct-17 23:29N 46°56' E 032°01'1 2.7
2017-Oct-17 23:00N 46°55' E 032°01'612.0
2017-Oct-17 22:30N 46°50' E 031°56'511.0
2017-Oct-17 22:00N 46°45' E 031°54'510.6
2017-Oct-17 21:30N 46°40' E 031°56'910.9
2017-Oct-17 20:42N 46°36' E 031°44'511.6
2017-Oct-17 20:14N 46°35' E 031°36'5 9.8
2017-Oct-17 19:43N 46°36' E 031°29'311.8
2017-Oct-17 19:30N 46°35' E 031°26'1912.0
2017-Oct-17 17:57N 46°33' E 030°59'4 8.3
2017-Oct-17 17:30N 46°30' E 030°57'3 5.1
2017-Oct-17 17:00N 46°27' E 030°57'9 0.6
2017-Oct-17 01:41N 46°21' E 031°07'33511.6
2017-Oct-15 20:47N 40°59' E 028°60'2 8.4
2017-Oct-15 20:30N 40°57' E 028°59'2 4.7
2017-Oct-15 20:00N 40°55' E 028°57'3 5.4
2017-Oct-15 19:29N 40°57' E 028°53'3 0.1
2017-Oct-14 08:46N 40°55' E 028°51'310.1
2017-Oct-14 08:30N 40°52' E 028°51'14611.0
2017-Oct-13 19:18N 39°55' E 025°55'3 8.2
2017-Oct-13 18:58N 39°53' E 025°53'14810.1
2017-Oct-13 04:15N 37°45' E 024°17'  
Track history (hours):
 
Tides and Currents Weather Stations Pressure Air Temp Water Temp Dewpoint Dewpoint Depression Visibility Wind Speed Wind Dir Waves Ship Positions

Zambezi Star

Last reported at 2017-Oct-19 20:00 UTC. Time now 2017-Oct-19 20:06 UTC.
Position N 46°57' E 032°00'.

Length 184 m; draft 8.6 m.

Type: Ship. MMSI: 235073548.

Date/timePositionNaut miles runAvg speedWind from/ knotsBaromVisibWave heightAir tempDewpointWater temp
2017-Oct-19 20:00N 46°57' E 032°00'0 0.8
2017-Oct-19 19:30N 46°56' E 032°01'0 0.3
2017-Oct-19 19:00N 46°56' E 032°01'0 0.0
2017-Oct-19 18:29N 46°56' E 032°01'0 0.0
2017-Oct-19 17:59N 46°56' E 032°01'0 0.0
2017-Oct-19 17:29N 46°56' E 032°01'0 0.0
2017-Oct-19 16:59N 46°56' E 032°01'0 0.0
2017-Oct-18 09:22N 46°56' E 032°01'0 0.4
2017-Oct-18 09:00N 46°56' E 032°01'0 0.2
2017-Oct-18 08:29N 46°56' E 032°01'0 0.0
2017-Oct-18 07:56N 46°56' E 032°01'0 0.1
2017-Oct-18 07:29N 46°56' E 032°01'0 0.1
2017-Oct-18 06:59N 46°56' E 032°01'0 0.1
2017-Oct-18 06:29N 46°56' E 032°01'0 0.1
2017-Oct-18 05:59N 46°56' E 032°01'0 0.0
2017-Oct-18 05:29N 46°56' E 032°01'0 0.0
2017-Oct-18 04:59N 46°56' E 032°01'0 0.0
2017-Oct-18 04:29N 46°56' E 032°01'0 0.0
2017-Oct-18 03:59N 46°56' E 032°01'0 0.1
2017-Oct-18 03:29N 46°56' E 032°01'0 0.0
2017-Oct-18 02:59N 46°56' E 032°01'0 0.0
2017-Oct-18 02:29N 46°56' E 032°01'0 0.0
2017-Oct-18 01:59N 46°56' E 032°01'0 0.0
2017-Oct-18 01:29N 46°56' E 032°01'0 0.0
2017-Oct-18 00:59N 46°56' E 032°01'0 0.1
2017-Oct-18 00:29N 46°56' E 032°01'0 0.0
2017-Oct-17 23:59N 46°56' E 032°01'0 0.1
2017-Oct-17 23:29N 46°56' E 032°01'1 2.7
2017-Oct-17 23:00N 46°55' E 032°01'612.0
2017-Oct-17 22:30N 46°50' E 031°56'511.0
2017-Oct-17 22:00N 46°45' E 031°54'510.6
2017-Oct-17 21:30N 46°40' E 031°56'910.9
2017-Oct-17 20:42N 46°36' E 031°44'511.6
2017-Oct-17 20:14N 46°35' E 031°36'5 9.8
2017-Oct-17 19:43N 46°36' E 031°29'311.8
2017-Oct-17 19:30N 46°35' E 031°26'1912.0
2017-Oct-17 17:57N 46°33' E 030°59'4 8.3
2017-Oct-17 17:30N 46°30' E 030°57'3 5.1
2017-Oct-17 17:00N 46°27' E 030°57'9 0.6
2017-Oct-17 01:41N 46°21' E 031°07'33511.6
2017-Oct-15 20:47N 40°59' E 028°60'2 8.4
2017-Oct-15 20:30N 40°57' E 028°59'2 4.7
2017-Oct-15 20:00N 40°55' E 028°57'3 5.4
2017-Oct-15 19:29N 40°57' E 028°53'3 0.1
2017-Oct-14 08:46N 40°55' E 028°51'310.1
2017-Oct-14 08:30N 40°52' E 028°51'14611.0
2017-Oct-13 19:18N 39°55' E 025°55'3 8.2
2017-Oct-13 18:58N 39°53' E 025°53'14810.1
2017-Oct-13 04:15N 37°45' E 024°17'  

Dump ship's entire track history